sensor_id;sensor_type;location;lat;lon;timestamp;P1;durP1;ratioP1;P2;durP2;ratioP2
76113;SDS011;64845;53.086;5.834;2023-04-01T00:00:54;6.25;;;4.30;;
76113;SDS011;64845;53.086;5.834;2023-04-01T00:03:21;4.50;;;4.10;;
76113;SDS011;64845;53.086;5.834;2023-04-01T00:05:47;5.50;;;5.00;;
76113;SDS011;64845;53.086;5.834;2023-04-01T00:08:13;4.57;;;4.18;;
76113;SDS011;64845;53.086;5.834;2023-04-01T00:10:39;5.90;;;4.85;;
76113;SDS011;64845;53.086;5.834;2023-04-01T00:13:05;5.88;;;4.50;;
76113;SDS011;64845;53.086;5.834;2023-04-01T00:15:30;4.65;;;4.13;;
76113;SDS011;64845;53.086;5.834;2023-04-01T00:17:56;4.85;;;4.25;;
76113;SDS011;64845;53.086;5.834;2023-04-01T00:20:22;5.25;;;4.60;;
76113;SDS011;64845;53.086;5.834;2023-04-01T00:22:48;4.93;;;4.43;;
76113;SDS011;64845;53.086;5.834;2023-04-01T00:25:15;6.93;;;4.90;;
76113;SDS011;64845;53.086;5.834;2023-04-01T00:27:41;4.57;;;4.15;;
76113;SDS011;64845;53.086;5.834;2023-04-01T00:30:06;5.15;;;4.65;;
76113;SDS011;64845;53.086;5.834;2023-04-01T00:32:33;5.07;;;4.57;;
76113;SDS011;64845;53.086;5.834;2023-04-01T00:34:59;5.65;;;5.05;;
76113;SDS011;64845;53.086;5.834;2023-04-01T00:37:25;5.10;;;4.32;;
76113;SDS011;64845;53.086;5.834;2023-04-01T00:39:51;5.32;;;4.45;;
76113;SDS011;64845;53.086;5.834;2023-04-01T00:42:17;7.22;;;5.25;;
76113;SDS011;64845;53.086;5.834;2023-04-01T00:44:44;5.53;;;5.03;;
76113;SDS011;64845;53.086;5.834;2023-04-01T00:47:13;5.35;;;4.85;;
76113;SDS011;64845;53.086;5.834;2023-04-01T00:49:39;5.18;;;4.78;;
76113;SDS011;64845;53.086;5.834;2023-04-01T00:52:07;5.35;;;4.85;;
76113;SDS011;64845;53.086;5.834;2023-04-01T00:54:35;5.63;;;4.93;;
76113;SDS011;64845;53.086;5.834;2023-04-01T00:57:04;5.28;;;4.78;;
76113;SDS011;64845;53.086;5.834;2023-04-01T00:59:35;4.95;;;4.40;;
76113;SDS011;64845;53.086;5.834;2023-04-01T01:02:06;4.93;;;4.10;;
76113;SDS011;64845;53.086;5.834;2023-04-01T01:04:33;4.43;;;4.03;;
76113;SDS011;64845;53.086;5.834;2023-04-01T01:12:43;2.97;;;2.72;;
76113;SDS011;64845;53.086;5.834;2023-04-01T01:23:43;4.45;;;2.25;;
76113;SDS011;64845;53.086;5.834;2023-04-01T01:26:39;3.70;;;3.05;;
76113;SDS011;64845;53.086;5.834;2023-04-01T01:34:37;7.32;;;4.50;;
76113;SDS011;64845;53.086;5.834;2023-04-01T01:37:23;7.93;;;5.50;;
76113;SDS011;64845;53.086;5.834;2023-04-01T01:40:02;5.57;;;5.07;;
76113;SDS011;64845;53.086;5.834;2023-04-01T01:42:30;7.15;;;6.22;;
76113;SDS011;64845;53.086;5.834;2023-04-01T01:44:58;6.80;;;5.63;;
76113;SDS011;64845;53.086;5.834;2023-04-01T01:47:25;6.75;;;5.80;;
76113;SDS011;64845;53.086;5.834;2023-04-01T01:49:51;7.40;;;5.78;;
76113;SDS011;64845;53.086;5.834;2023-04-01T01:52:21;8.20;;;6.20;;
76113;SDS011;64845;53.086;5.834;2023-04-01T01:54:51;8.73;;;5.18;;
76113;SDS011;64845;53.086;5.834;2023-04-01T01:59:45;8.52;;;5.85;;
76113;SDS011;64845;53.086;5.834;2023-04-01T02:02:14;7.63;;;5.75;;
76113;SDS011;64845;53.086;5.834;2023-04-01T02:04:42;8.32;;;5.32;;
76113;SDS011;64845;53.086;5.834;2023-04-01T02:07:27;5.63;;;5.03;;
76113;SDS011;64845;53.086;5.834;2023-04-01T02:09:58;4.97;;;4.47;;
76113;SDS011;64845;53.086;5.834;2023-04-01T02:12:24;7.85;;;5.32;;
76113;SDS011;64845;53.086;5.834;2023-04-01T02:17:16;7.15;;;5.78;;
76113;SDS011;64845;53.086;5.834;2023-04-01T02:19:51;5.93;;;5.32;;
76113;SDS011;64845;53.086;5.834;2023-04-01T02:22:26;8.18;;;6.03;;
76113;SDS011;64845;53.086;5.834;2023-04-01T02:24:57;8.23;;;6.28;;
76113;SDS011;64845;53.086;5.834;2023-04-01T02:27:26;7.05;;;6.30;;
76113;SDS011;64845;53.086;5.834;2023-04-01T02:29:51;7.47;;;6.30;;
76113;SDS011;64845;53.086;5.834;2023-04-01T02:32:18;7.45;;;5.53;;
76113;SDS011;64845;53.086;5.834;2023-04-01T02:34:45;6.68;;;5.85;;
76113;SDS011;64845;53.086;5.834;2023-04-01T02:37:11;7.32;;;5.35;;
76113;SDS011;64845;53.086;5.834;2023-04-01T02:39:38;10.52;;;5.95;;
76113;SDS011;64845;53.086;5.834;2023-04-01T02:42:03;6.32;;;5.57;;
76113;SDS011;64845;53.086;5.834;2023-04-01T02:44:29;7.55;;;5.22;;
76113;SDS011;64845;53.086;5.834;2023-04-01T02:46:54;7.57;;;5.70;;
76113;SDS011;64845;53.086;5.834;2023-04-01T02:49:19;6.43;;;5.82;;
76113;SDS011;64845;53.086;5.834;2023-04-01T02:51:45;6.25;;;5.38;;
76113;SDS011;64845;53.086;5.834;2023-04-01T02:54:10;5.13;;;4.20;;
76113;SDS011;64845;53.086;5.834;2023-04-01T02:56:36;6.03;;;4.93;;
76113;SDS011;64845;53.086;5.834;2023-04-01T02:59:01;8.25;;;5.43;;
76113;SDS011;64845;53.086;5.834;2023-04-01T03:01:27;5.82;;;5.30;;
76113;SDS011;64845;53.086;5.834;2023-04-01T03:03:52;8.45;;;6.22;;
76113;SDS011;64845;53.086;5.834;2023-04-01T03:06:17;7.18;;;6.35;;
76113;SDS011;64845;53.086;5.834;2023-04-01T03:08:43;6.97;;;6.18;;
76113;SDS011;64845;53.086;5.834;2023-04-01T03:11:09;6.07;;;5.40;;
76113;SDS011;64845;53.086;5.834;2023-04-01T03:13:35;8.40;;;6.40;;
76113;SDS011;64845;53.086;5.834;2023-04-01T03:16:00;7.57;;;5.90;;
76113;SDS011;64845;53.086;5.834;2023-04-01T03:18:26;6.40;;;5.65;;
76113;SDS011;64845;53.086;5.834;2023-04-01T03:20:51;7.32;;;6.40;;
76113;SDS011;64845;53.086;5.834;2023-04-01T03:23:17;6.40;;;5.75;;
76113;SDS011;64845;53.086;5.834;2023-04-01T03:25:44;6.53;;;5.82;;
76113;SDS011;64845;53.086;5.834;2023-04-01T03:28:10;7.15;;;6.18;;
76113;SDS011;64845;53.086;5.834;2023-04-01T03:30:37;12.05;;;6.70;;
76113;SDS011;64845;53.086;5.834;2023-04-01T03:33:02;8.18;;;6.45;;
76113;SDS011;64845;53.086;5.834;2023-04-01T03:35:28;6.35;;;5.72;;
76113;SDS011;64845;53.086;5.834;2023-04-01T03:37:53;7.18;;;5.68;;
76113;SDS011;64845;53.086;5.834;2023-04-01T03:40:20;7.75;;;6.95;;
76113;SDS011;64845;53.086;5.834;2023-04-01T03:42:46;8.05;;;6.78;;
76113;SDS011;64845;53.086;5.834;2023-04-01T03:45:11;7.55;;;6.35;;
76113;SDS011;64845;53.086;5.834;2023-04-01T03:47:38;7.28;;;6.57;;
76113;SDS011;64845;53.086;5.834;2023-04-01T03:50:04;7.53;;;6.78;;
76113;SDS011;64845;53.086;5.834;2023-04-01T03:52:30;6.90;;;6.05;;
76113;SDS011;64845;53.086;5.834;2023-04-01T03:54:56;8.65;;;6.70;;
76113;SDS011;64845;53.086;5.834;2023-04-01T03:57:21;8.63;;;7.40;;
76113;SDS011;64845;53.086;5.834;2023-04-01T03:59:47;8.25;;;7.05;;
76113;SDS011;64845;53.086;5.834;2023-04-01T04:02:12;9.07;;;7.25;;
76113;SDS011;64845;53.086;5.834;2023-04-01T04:04:37;7.85;;;7.10;;
76113;SDS011;64845;53.086;5.834;2023-04-01T04:07:03;7.82;;;7.03;;
76113;SDS011;64845;53.086;5.834;2023-04-01T04:09:30;13.05;;;8.05;;
76113;SDS011;64845;53.086;5.834;2023-04-01T04:11:56;9.93;;;7.85;;
76113;SDS011;64845;53.086;5.834;2023-04-01T04:14:22;11.20;;;7.82;;
76113;SDS011;64845;53.086;5.834;2023-04-01T04:16:48;9.75;;;7.95;;
76113;SDS011;64845;53.086;5.834;2023-04-01T04:19:14;10.57;;;8.98;;
76113;SDS011;64845;53.086;5.834;2023-04-01T04:21:40;11.75;;;8.98;;
76113;SDS011;64845;53.086;5.834;2023-04-01T04:24:06;9.25;;;8.10;;
76113;SDS011;64845;53.086;5.834;2023-04-01T04:26:32;12.07;;;9.10;;
76113;SDS011;64845;53.086;5.834;2023-04-01T04:28:58;9.90;;;8.80;;
76113;SDS011;64845;53.086;5.834;2023-04-01T04:31:23;10.40;;;8.88;;
76113;SDS011;64845;53.086;5.834;2023-04-01T04:33:50;11.95;;;9.48;;
76113;SDS011;64845;53.086;5.834;2023-04-01T04:36:16;12.20;;;9.57;;
76113;SDS011;64845;53.086;5.834;2023-04-01T04:38:42;10.23;;;8.93;;
76113;SDS011;64845;53.086;5.834;2023-04-01T04:41:11;10.18;;;8.90;;
76113;SDS011;64845;53.086;5.834;2023-04-01T04:43:47;9.80;;;8.80;;
76113;SDS011;64845;53.086;5.834;2023-04-01T04:46:17;11.70;;;9.18;;
76113;SDS011;64845;53.086;5.834;2023-04-01T04:48:43;9.65;;;8.15;;
76113;SDS011;64845;53.086;5.834;2023-04-01T04:51:12;12.10;;;8.70;;
76113;SDS011;64845;53.086;5.834;2023-04-01T04:53:39;14.27;;;9.40;;
76113;SDS011;64845;53.086;5.834;2023-04-01T04:56:04;10.90;;;8.95;;
76113;SDS011;64845;53.086;5.834;2023-04-01T04:58:30;13.25;;;8.57;;
76113;SDS011;64845;53.086;5.834;2023-04-01T05:00:55;11.35;;;9.73;;
76113;SDS011;64845;53.086;5.834;2023-04-01T05:03:21;13.98;;;8.75;;
76113;SDS011;64845;53.086;5.834;2023-04-01T05:05:53;11.10;;;9.48;;
76113;SDS011;64845;53.086;5.834;2023-04-01T05:08:19;12.18;;;9.73;;
76113;SDS011;64845;53.086;5.834;2023-04-01T05:10:45;14.23;;;9.85;;
76113;SDS011;64845;53.086;5.834;2023-04-01T05:13:10;11.60;;;9.65;;
76113;SDS011;64845;53.086;5.834;2023-04-01T05:15:35;10.70;;;9.57;;
76113;SDS011;64845;53.086;5.834;2023-04-01T05:18:02;14.82;;;10.50;;
76113;SDS011;64845;53.086;5.834;2023-04-01T05:20:27;12.05;;;10.45;;
76113;SDS011;64845;53.086;5.834;2023-04-01T05:22:56;13.80;;;10.02;;
76113;SDS011;64845;53.086;5.834;2023-04-01T05:25:22;11.98;;;10.25;;
76113;SDS011;64845;53.086;5.834;2023-04-01T05:27:47;14.52;;;11.35;;
76113;SDS011;64845;53.086;5.834;2023-04-01T05:30:12;14.50;;;10.15;;
76113;SDS011;64845;53.086;5.834;2023-04-01T05:32:38;16.15;;;11.43;;
76113;SDS011;64845;53.086;5.834;2023-04-01T05:35:03;14.10;;;11.52;;
76113;SDS011;64845;53.086;5.834;2023-04-01T05:37:29;15.55;;;11.18;;
76113;SDS011;64845;53.086;5.834;2023-04-01T05:39:55;13.93;;;11.60;;
76113;SDS011;64845;53.086;5.834;2023-04-01T05:42:20;15.13;;;11.63;;
76113;SDS011;64845;53.086;5.834;2023-04-01T05:44:45;16.48;;;11.57;;
76113;SDS011;64845;53.086;5.834;2023-04-01T05:47:11;15.98;;;11.90;;
76113;SDS011;64845;53.086;5.834;2023-04-01T05:49:36;14.15;;;12.10;;
76113;SDS011;64845;53.086;5.834;2023-04-01T05:52:01;16.45;;;12.02;;
76113;SDS011;64845;53.086;5.834;2023-04-01T05:54:27;14.23;;;11.90;;
76113;SDS011;64845;53.086;5.834;2023-04-01T05:56:52;15.48;;;12.30;;
76113;SDS011;64845;53.086;5.834;2023-04-01T05:59:17;19.55;;;13.98;;
76113;SDS011;64845;53.086;5.834;2023-04-01T06:01:43;15.70;;;12.88;;
76113;SDS011;64845;53.086;5.834;2023-04-01T06:04:15;15.85;;;12.82;;
76113;SDS011;64845;53.086;5.834;2023-04-01T06:06:41;26.15;;;12.88;;
76113;SDS011;64845;53.086;5.834;2023-04-01T06:09:17;17.70;;;13.43;;
76113;SDS011;64845;53.086;5.834;2023-04-01T06:26:07;17.27;;;12.27;;
76113;SDS011;64845;53.086;5.834;2023-04-01T06:28:58;19.65;;;12.93;;
76113;SDS011;64845;53.086;5.834;2023-04-01T06:31:46;18.55;;;12.57;;
76113;SDS011;64845;53.086;5.834;2023-04-01T06:42:36;17.05;;;13.18;;
76113;SDS011;64845;53.086;5.834;2023-04-01T06:50:42;14.93;;;11.88;;
76113;SDS011;64845;53.086;5.834;2023-04-01T06:53:32;17.52;;;12.80;;
76113;SDS011;64845;53.086;5.834;2023-04-01T06:58:39;17.55;;;12.65;;
76113;SDS011;64845;53.086;5.834;2023-04-01T07:01:13;16.48;;;12.90;;
76113;SDS011;64845;53.086;5.834;2023-04-01T07:03:43;15.13;;;11.95;;
76113;SDS011;64845;53.086;5.834;2023-04-01T07:06:43;17.80;;;12.80;;
76113;SDS011;64845;53.086;5.834;2023-04-01T07:09:19;22.58;;;12.68;;
76113;SDS011;64845;53.086;5.834;2023-04-01T07:11:49;15.73;;;12.48;;
76113;SDS011;64845;53.086;5.834;2023-04-01T07:14:39;14.98;;;11.10;;
76113;SDS011;64845;53.086;5.834;2023-04-01T07:17:06;24.30;;;13.05;;
76113;SDS011;64845;53.086;5.834;2023-04-01T07:22:42;16.70;;;12.55;;
76113;SDS011;64845;53.086;5.834;2023-04-01T07:25:13;15.18;;;10.85;;
76113;SDS011;64845;53.086;5.834;2023-04-01T07:27:42;16.33;;;11.52;;
76113;SDS011;64845;53.086;5.834;2023-04-01T07:30:16;13.57;;;10.50;;
76113;SDS011;64845;53.086;5.834;2023-04-01T07:33:00;11.95;;;9.55;;
76113;SDS011;64845;53.086;5.834;2023-04-01T07:35:33;13.60;;;9.25;;
76113;SDS011;64845;53.086;5.834;2023-04-01T07:38:24;12.23;;;9.80;;
76113;SDS011;64845;53.086;5.834;2023-04-01T07:46:15;17.98;;;9.43;;
76113;SDS011;64845;53.086;5.834;2023-04-01T07:48:58;12.23;;;10.10;;
76113;SDS011;64845;53.086;5.834;2023-04-01T07:51:54;12.65;;;10.68;;
76113;SDS011;64845;53.086;5.834;2023-04-01T08:02:44;16.02;;;11.73;;
76113;SDS011;64845;53.086;5.834;2023-04-01T08:05:34;14.35;;;11.15;;
76113;SDS011;64845;53.086;5.834;2023-04-01T08:08:25;14.70;;;11.50;;
76113;SDS011;64845;53.086;5.834;2023-04-01T08:10:57;17.15;;;11.65;;
76113;SDS011;64845;53.086;5.834;2023-04-01T08:21:41;15.70;;;11.50;;
76113;SDS011;64845;53.086;5.834;2023-04-01T08:24:44;14.63;;;11.57;;
76113;SDS011;64845;53.086;5.834;2023-04-01T08:27:11;18.63;;;12.80;;
76113;SDS011;64845;53.086;5.834;2023-04-01T08:32:37;17.63;;;13.77;;
76113;SDS011;64845;53.086;5.834;2023-04-01T08:35:28;15.75;;;13.50;;
76113;SDS011;64845;53.086;5.834;2023-04-01T08:37:56;16.80;;;13.13;;
76113;SDS011;64845;53.086;5.834;2023-04-01T08:51:42;24.63;;;14.07;;
76113;SDS011;64845;53.086;5.834;2023-04-01T08:59:36;24.67;;;12.35;;
76113;SDS011;64845;53.086;5.834;2023-04-01T09:13:04;19.52;;;10.98;;
76113;SDS011;64845;53.086;5.834;2023-04-01T09:15:37;15.77;;;9.75;;
76113;SDS011;64845;53.086;5.834;2023-04-01T09:21:37;14.40;;;8.93;;
76113;SDS011;64845;53.086;5.834;2023-04-01T09:35:45;10.45;;;8.13;;
76113;SDS011;64845;53.086;5.834;2023-04-01T09:41:17;10.73;;;7.32;;
76113;SDS011;64845;53.086;5.834;2023-04-01T09:46:42;6.85;;;6.15;;
76113;SDS011;64845;53.086;5.834;2023-04-01T09:55:05;7.70;;;5.43;;
76113;SDS011;64845;53.086;5.834;2023-04-01T10:00:29;7.72;;;5.22;;
76113;SDS011;64845;53.086;5.834;2023-04-01T10:05:49;7.13;;;5.55;;
76113;SDS011;64845;53.086;5.834;2023-04-01T10:25:15;7.40;;;6.32;;
76113;SDS011;64845;53.086;5.834;2023-04-01T10:39:49;7.05;;;5.60;;
76113;SDS011;64845;53.086;5.834;2023-04-01T10:42:31;6.32;;;5.22;;
76113;SDS011;64845;53.086;5.834;2023-04-01T10:57:02;5.00;;;3.80;;
76113;SDS011;64845;53.086;5.834;2023-04-01T11:05:52;5.57;;;4.32;;
76113;SDS011;64845;53.086;5.834;2023-04-01T11:28:37;4.65;;;3.63;;
76113;SDS011;64845;53.086;5.834;2023-04-01T11:31:25;5.30;;;3.83;;
76113;SDS011;64845;53.086;5.834;2023-04-01T11:34:01;5.13;;;3.70;;
76113;SDS011;64845;53.086;5.834;2023-04-01T11:39:17;3.75;;;3.20;;
76113;SDS011;64845;53.086;5.834;2023-04-01T11:44:29;4.85;;;3.10;;
76113;SDS011;64845;53.086;5.834;2023-04-01T11:55:46;3.67;;;2.55;;
76113;SDS011;64845;53.086;5.834;2023-04-01T12:18:12;3.00;;;2.03;;
76113;SDS011;64845;53.086;5.834;2023-04-01T12:20:51;3.65;;;2.10;;
76113;SDS011;64845;53.086;5.834;2023-04-01T12:29:03;3.55;;;2.03;;
76113;SDS011;64845;53.086;5.834;2023-04-01T12:31:46;3.67;;;1.80;;
76113;SDS011;64845;53.086;5.834;2023-04-01T12:43:27;3.85;;;2.38;;
76113;SDS011;64845;53.086;5.834;2023-04-01T12:46:16;3.17;;;2.70;;
76113;SDS011;64845;53.086;5.834;2023-04-01T12:49:01;5.07;;;2.78;;
76113;SDS011;64845;53.086;5.834;2023-04-01T13:00:05;3.38;;;2.38;;
76113;SDS011;64845;53.086;5.834;2023-04-01T13:07:56;2.53;;;2.10;;
76113;SDS011;64845;53.086;5.834;2023-04-01T13:15:58;3.17;;;2.10;;
76113;SDS011;64845;53.086;5.834;2023-04-01T13:18:53;2.95;;;2.00;;
76113;SDS011;64845;53.086;5.834;2023-04-01T13:21:23;2.28;;;2.00;;
76113;SDS011;64845;53.086;5.834;2023-04-01T13:26:29;3.35;;;1.80;;
76113;SDS011;64845;53.086;5.834;2023-04-01T13:29:15;3.53;;;1.70;;
76113;SDS011;64845;53.086;5.834;2023-04-01T13:31:55;3.33;;;1.80;;
76113;SDS011;64845;53.086;5.834;2023-04-01T13:42:59;2.95;;;1.45;;
76113;SDS011;64845;53.086;5.834;2023-04-01T13:45:34;3.33;;;1.67;;
76113;SDS011;64845;53.086;5.834;2023-04-01T13:51:21;5.05;;;2.05;;
76113;SDS011;64845;53.086;5.834;2023-04-01T14:08:33;1.70;;;1.60;;
76113;SDS011;64845;53.086;5.834;2023-04-01T14:27:43;2.47;;;1.50;;
76113;SDS011;64845;53.086;5.834;2023-04-01T14:30:21;7.18;;;1.67;;
76113;SDS011;64845;53.086;5.834;2023-04-01T14:42:00;1.92;;;1.73;;
76113;SDS011;64845;53.086;5.834;2023-04-01T14:47:42;2.10;;;1.38;;
76113;SDS011;64845;53.086;5.834;2023-04-01T14:50:45;2.83;;;1.45;;
76113;SDS011;64845;53.086;5.834;2023-04-01T14:53:16;4.03;;;1.40;;
76113;SDS011;64845;53.086;5.834;2023-04-01T14:55:50;1.63;;;1.30;;
76113;SDS011;64845;53.086;5.834;2023-04-01T14:58:21;4.68;;;1.50;;
76113;SDS011;64845;53.086;5.834;2023-04-01T15:01:06;4.50;;;1.58;;
76113;SDS011;64845;53.086;5.834;2023-04-01T15:14:55;2.55;;;1.40;;
76113;SDS011;64845;53.086;5.834;2023-04-01T15:26:05;2.17;;;1.30;;
76113;SDS011;64845;53.086;5.834;2023-04-01T15:31:32;2.15;;;1.60;;
76113;SDS011;64845;53.086;5.834;2023-04-01T15:40:28;4.47;;;1.90;;
76113;SDS011;64845;53.086;5.834;2023-04-01T15:45:55;3.60;;;1.90;;
76113;SDS011;64845;53.086;5.834;2023-04-01T16:06:59;2.78;;;1.90;;
76113;SDS011;64845;53.086;5.834;2023-04-01T16:12:52;4.53;;;2.53;;
76113;SDS011;64845;53.086;5.834;2023-04-01T16:20:19;3.63;;;2.38;;
76113;SDS011;64845;53.086;5.834;2023-04-01T16:30:58;9.45;;;3.30;;
76113;SDS011;64845;53.086;5.834;2023-04-01T16:36:41;7.82;;;4.03;;
76113;SDS011;64845;53.086;5.834;2023-04-01T16:39:18;7.75;;;4.15;;
76113;SDS011;64845;53.086;5.834;2023-04-01T16:41:49;10.07;;;4.85;;
76113;SDS011;64845;53.086;5.834;2023-04-01T16:44:25;6.95;;;4.07;;
76113;SDS011;64845;53.086;5.834;2023-04-01T17:00:02;9.30;;;4.65;;
76113;SDS011;64845;53.086;5.834;2023-04-01T17:02:33;8.80;;;4.00;;
76113;SDS011;64845;53.086;5.834;2023-04-01T17:05:04;7.53;;;4.20;;
76113;SDS011;64845;53.086;5.834;2023-04-01T17:07:45;6.32;;;3.58;;
76113;SDS011;64845;53.086;5.834;2023-04-01T17:18:00;8.40;;;3.90;;
76113;SDS011;64845;53.086;5.834;2023-04-01T17:23:18;9.32;;;4.30;;
76113;SDS011;64845;53.086;5.834;2023-04-01T17:28:36;7.65;;;4.18;;
76113;SDS011;64845;53.086;5.834;2023-04-01T17:39:41;9.02;;;4.10;;
76113;SDS011;64845;53.086;5.834;2023-04-01T17:42:16;10.57;;;3.92;;
76113;SDS011;64845;53.086;5.834;2023-04-01T17:45:11;9.38;;;4.00;;
76113;SDS011;64845;53.086;5.834;2023-04-01T17:48:01;8.80;;;3.78;;
76113;SDS011;64845;53.086;5.834;2023-04-01T17:53:11;9.65;;;4.18;;
76113;SDS011;64845;53.086;5.834;2023-04-01T17:58:22;10.68;;;4.90;;
76113;SDS011;64845;53.086;5.834;2023-04-01T18:12:12;14.07;;;5.53;;
76113;SDS011;64845;53.086;5.834;2023-04-01T18:20:33;6.45;;;3.72;;
76113;SDS011;64845;53.086;5.834;2023-04-01T18:25:49;7.95;;;4.30;;
76113;SDS011;64845;53.086;5.834;2023-04-01T18:30:51;9.18;;;4.25;;
76113;SDS011;64845;53.086;5.834;2023-04-01T18:36:21;10.32;;;4.50;;
76113;SDS011;64845;53.086;5.834;2023-04-01T18:44:57;10.77;;;4.68;;
76113;SDS011;64845;53.086;5.834;2023-04-01T18:52:57;9.20;;;4.30;;
76113;SDS011;64845;53.086;5.834;2023-04-01T18:55:37;11.57;;;5.10;;
76113;SDS011;64845;53.086;5.834;2023-04-01T19:01:31;8.25;;;4.30;;
76113;SDS011;64845;53.086;5.834;2023-04-01T19:04:12;10.70;;;4.88;;
76113;SDS011;64845;53.086;5.834;2023-04-01T19:06:52;8.10;;;4.20;;
76113;SDS011;64845;53.086;5.834;2023-04-01T19:09:26;8.27;;;4.28;;
76113;SDS011;64845;53.086;5.834;2023-04-01T19:20:17;10.38;;;4.80;;
76113;SDS011;64845;53.086;5.834;2023-04-01T19:25:35;12.63;;;5.15;;
76113;SDS011;64845;53.086;5.834;2023-04-01T19:31:14;9.05;;;4.38;;
76113;SDS011;64845;53.086;5.834;2023-04-01T19:36:33;8.37;;;4.47;;
76113;SDS011;64845;53.086;5.834;2023-04-01T19:41:50;11.00;;;4.60;;
76113;SDS011;64845;53.086;5.834;2023-04-01T19:52:36;7.65;;;4.03;;
76113;SDS011;64845;53.086;5.834;2023-04-01T19:55:14;8.25;;;4.32;;
76113;SDS011;64845;53.086;5.834;2023-04-01T20:08:14;8.85;;;4.60;;
76113;SDS011;64845;53.086;5.834;2023-04-01T20:10:57;10.77;;;4.25;;
76113;SDS011;64845;53.086;5.834;2023-04-01T20:13:45;6.47;;;4.25;;
76113;SDS011;64845;53.086;5.834;2023-04-01T20:16:36;8.88;;;4.80;;
76113;SDS011;64845;53.086;5.834;2023-04-01T20:19:21;7.07;;;4.50;;
76113;SDS011;64845;53.086;5.834;2023-04-01T20:21:52;12.45;;;5.53;;
76113;SDS011;64845;53.086;5.834;2023-04-01T20:24:24;11.30;;;4.75;;
76113;SDS011;64845;53.086;5.834;2023-04-01T20:27:03;14.55;;;5.07;;
76113;SDS011;64845;53.086;5.834;2023-04-01T20:32:28;12.70;;;5.35;;
76113;SDS011;64845;53.086;5.834;2023-04-01T20:40:51;13.60;;;5.32;;
76113;SDS011;64845;53.086;5.834;2023-04-01T20:46:18;9.55;;;4.35;;
76113;SDS011;64845;53.086;5.834;2023-04-01T20:51:31;9.82;;;4.32;;
76113;SDS011;64845;53.086;5.834;2023-04-01T20:54:09;8.90;;;4.45;;
76113;SDS011;64845;53.086;5.834;2023-04-01T20:57:21;6.88;;;4.22;;
76113;SDS011;64845;53.086;5.834;2023-04-01T21:02:13;12.35;;;4.30;;
76113;SDS011;64845;53.086;5.834;2023-04-01T21:10:41;9.13;;;4.18;;
76113;SDS011;64845;53.086;5.834;2023-04-01T21:15:50;15.77;;;5.93;;
76113;SDS011;64845;53.086;5.834;2023-04-01T21:32:15;12.20;;;3.67;;
76113;SDS011;64845;53.086;5.834;2023-04-01T22:06:51;9.05;;;3.88;;
76113;SDS011;64845;53.086;5.834;2023-04-01T22:09:47;11.38;;;3.90;;
76113;SDS011;64845;53.086;5.834;2023-04-01T22:12:45;11.65;;;3.70;;
76113;SDS011;64845;53.086;5.834;2023-04-01T22:15:29;9.07;;;3.33;;
76113;SDS011;64845;53.086;5.834;2023-04-01T22:18:19;6.65;;;3.75;;
76113;SDS011;64845;53.086;5.834;2023-04-01T22:26:21;12.73;;;3.97;;
76113;SDS011;64845;53.086;5.834;2023-04-01T22:28:57;9.38;;;3.70;;
76113;SDS011;64845;53.086;5.834;2023-04-01T22:31:29;9.80;;;3.90;;
76113;SDS011;64845;53.086;5.834;2023-04-01T22:34:05;12.00;;;3.65;;
76113;SDS011;64845;53.086;5.834;2023-04-01T22:36:47;9.95;;;4.00;;
76113;SDS011;64845;53.086;5.834;2023-04-01T22:42:17;9.27;;;3.30;;
76113;SDS011;64845;53.086;5.834;2023-04-01T22:48:04;8.50;;;3.78;;
76113;SDS011;64845;53.086;5.834;2023-04-01T22:50:35;8.32;;;4.78;;
76113;SDS011;64845;53.086;5.834;2023-04-01T22:56:06;13.55;;;4.28;;
76113;SDS011;64845;53.086;5.834;2023-04-01T22:58:38;9.40;;;3.78;;
76113;SDS011;64845;53.086;5.834;2023-04-01T23:01:14;11.60;;;3.40;;
76113;SDS011;64845;53.086;5.834;2023-04-01T23:03:46;7.28;;;2.88;;
76113;SDS011;64845;53.086;5.834;2023-04-01T23:06:23;6.45;;;3.30;;
76113;SDS011;64845;53.086;5.834;2023-04-01T23:09:16;6.43;;;3.15;;
76113;SDS011;64845;53.086;5.834;2023-04-01T23:28:15;12.43;;;3.30;;
76113;SDS011;64845;53.086;5.834;2023-04-01T23:33:10;7.45;;;3.10;;
76113;SDS011;64845;53.086;5.834;2023-04-01T23:35:46;8.00;;;3.13;;
76113;SDS011;64845;53.086;5.834;2023-04-01T23:38:16;5.03;;;2.60;;
76113;SDS011;64845;53.086;5.834;2023-04-01T23:40:42;7.95;;;2.70;;
76113;SDS011;64845;53.086;5.834;2023-04-01T23:43:14;9.27;;;3.13;;
76113;SDS011;64845;53.086;5.834;2023-04-01T23:45:47;9.30;;;3.60;;
76113;SDS011;64845;53.086;5.834;2023-04-01T23:48:13;11.82;;;3.53;;
76113;SDS011;64845;53.086;5.834;2023-04-01T23:50:41;7.82;;;3.17;;
76113;SDS011;64845;53.086;5.834;2023-04-01T23:53:16;7.15;;;3.00;;
76113;SDS011;64845;53.086;5.834;2023-04-01T23:55:45;4.78;;;2.70;;
